createdAt,value
2018-06-03T00:01:29.350Z,15.33
2018-06-03T00:04:01.320Z,15.21
2018-06-03T00:09:10.445Z,15.24
2018-06-03T00:11:42.823Z,15.11
2018-06-03T00:14:15.605Z,15.03
2018-06-03T00:16:48.087Z,14.98
2018-06-03T00:19:20.783Z,15.01
2018-06-03T00:24:30.263Z,15.14
2018-06-03T00:27:02.962Z,15.06
2018-06-03T00:32:12.446Z,15.11
2018-06-03T00:34:44.752Z,15.17
2018-06-03T00:39:54.957Z,15.20
2018-06-03T00:42:27.783Z,15.33
2018-06-03T00:44:58.776Z,15.26
2018-06-03T00:47:31.743Z,15.25
2018-06-03T00:50:03.860Z,15.28
2018-06-03T00:55:15.170Z,15.41
2018-06-03T00:57:47.423Z,15.25
2018-06-03T01:02:56.547Z,15.28
2018-06-03T01:05:28.399Z,15.29
2018-06-03T01:07:59.858Z,15.15
2018-06-03T01:10:32.865Z,15.07
2018-06-03T01:13:03.743Z,15.07
2018-06-03T01:15:35.760Z,15.05
2018-06-03T01:18:07.809Z,15.01
2018-06-03T01:23:16.591Z,15.15
2018-06-03T01:25:49.010Z,15.20
2018-06-03T01:28:23.518Z,15.24
2018-06-03T01:30:56.375Z,15.09
2018-06-03T01:33:29.270Z,14.97
2018-06-03T01:36:01.111Z,14.95
2018-06-03T01:38:34.113Z,14.91
2018-06-03T01:41:06.575Z,14.86
2018-06-03T01:43:39.402Z,14.80
2018-06-03T01:46:11.373Z,14.77
2018-06-03T01:48:43.695Z,14.71
2018-06-03T01:51:16.746Z,14.73
2018-06-03T01:53:48.861Z,14.71
2018-06-03T01:56:20.837Z,14.69
2018-06-03T01:58:53.820Z,14.67
2018-06-03T02:01:26.206Z,14.72
2018-06-03T02:03:57.210Z,14.59
2018-06-03T02:06:30.364Z,14.68
2018-06-03T02:09:01.855Z,14.59
2018-06-03T02:14:11.851Z,14.58
2018-06-03T02:16:44.085Z,14.64
2018-06-03T02:21:52.287Z,14.50
2018-06-03T02:24:24.876Z,14.38
2018-06-03T02:26:56.495Z,14.26
2018-06-03T02:29:29.833Z,14.21
2018-06-03T02:32:01.296Z,14.18
2018-06-03T02:39:45.693Z,14.35
2018-06-03T02:44:54.757Z,14.35
2018-06-03T02:47:27.063Z,14.37
2018-06-03T02:49:57.657Z,14.34
2018-06-03T02:52:31.357Z,14.31
2018-06-03T02:55:03.614Z,14.30
2018-06-03T03:00:12.196Z,14.44
2018-06-03T03:05:21.514Z,14.39
2018-06-03T03:07:54.883Z,14.25
2018-06-03T03:10:27.583Z,14.33
2018-06-03T03:13:00.314Z,14.39
2018-06-03T03:15:32.897Z,14.19
2018-06-03T03:18:05.566Z,14.02
2018-06-03T03:20:38.567Z,13.80
2018-06-03T03:25:47.939Z,13.69
2018-06-03T03:28:21.083Z,13.52
2018-06-03T03:30:53.346Z,13.64
2018-06-03T03:36:01.308Z,13.60
2018-06-03T03:38:33.148Z,13.49
2018-06-03T03:41:05.632Z,13.69
2018-06-03T03:43:38.190Z,13.62
2018-06-03T03:46:10.988Z,13.57
2018-06-03T03:48:43.278Z,13.43
2018-06-03T03:51:15.887Z,13.37
2018-06-03T03:53:50.387Z,13.51
2018-06-03T03:56:22.825Z,13.44
2018-06-03T04:01:31.961Z,13.59
2018-06-03T04:04:04.216Z,13.53
2018-06-03T04:06:36.970Z,13.61
2018-06-03T04:09:09.254Z,13.61
2018-06-03T04:14:19.616Z,13.81
2018-06-03T04:16:52.242Z,13.80
2018-06-03T04:19:24.183Z,13.97
2018-06-03T04:21:57.200Z,14.02
2018-06-03T04:24:28.912Z,14.09
2018-06-03T04:27:01.900Z,14.16
2018-06-03T04:29:35.079Z,14.34
2018-06-03T04:32:08.718Z,14.50
2018-06-03T04:34:41.749Z,14.45
2018-06-03T04:37:14.167Z,14.41
2018-06-03T04:39:46.619Z,14.52
2018-06-03T04:42:19.864Z,14.65
2018-06-03T04:44:52.653Z,14.82
2018-06-03T04:47:25.443Z,14.96
2018-06-03T04:49:56.755Z,15.09
2018-06-03T04:52:29.673Z,15.27
2018-06-03T04:55:02.243Z,15.44
2018-06-03T04:57:34.125Z,15.50
2018-06-03T05:02:42.713Z,15.69
2018-06-03T05:07:53.977Z,15.90
2018-06-03T05:10:25.878Z,15.94
2018-06-03T05:12:57.330Z,15.98
2018-06-03T05:15:29.215Z,16.16
2018-06-03T05:18:00.689Z,16.34
2018-06-03T05:20:34.312Z,16.35
2018-06-03T05:23:05.910Z,16.37
2018-06-03T05:25:38.275Z,16.48
2018-06-03T05:28:11.306Z,16.64
2018-06-03T05:30:43.758Z,16.75
2018-06-03T05:35:55.100Z,17.05
2018-06-03T05:38:26.970Z,17.17
2018-06-03T05:40:57.318Z,17.16
2018-06-03T05:48:42.375Z,17.65
2018-06-03T05:51:14.592Z,17.62
2018-06-03T05:53:46.203Z,17.67
2018-06-03T05:56:18.353Z,17.78
2018-06-03T05:58:51.637Z,17.84
2018-06-03T06:01:24.463Z,18.01
2018-06-03T06:03:54.643Z,18.16
2018-06-03T06:06:27.258Z,18.16
2018-06-03T06:08:59.749Z,18.18
2018-06-03T06:11:32.581Z,18.26
2018-06-03T06:14:04.730Z,18.36
2018-06-03T06:19:13.695Z,18.74
2018-06-03T06:21:47.093Z,18.79
2018-06-03T06:24:19.811Z,19.01
2018-06-03T06:26:51.900Z,19.17
2018-06-03T06:29:23.768Z,19.26
2018-06-03T06:31:55.135Z,19.31
2018-06-03T06:37:04.478Z,19.68
2018-06-03T06:42:13.423Z,19.94
2018-06-03T06:47:21.975Z,20.20
2018-06-03T06:49:54.417Z,20.22
2018-06-03T06:52:27.945Z,20.27
2018-06-03T06:54:59.088Z,20.39
2018-06-03T07:00:08.102Z,20.68
2018-06-03T07:02:41.086Z,20.66
2018-06-03T07:10:29.711Z,21.18
2018-06-03T07:13:00.410Z,21.15
2018-06-03T07:15:33.362Z,21.16
2018-06-03T07:18:07.102Z,21.39
2018-06-03T07:20:39.483Z,21.52
2018-06-03T07:23:12.021Z,21.63
2018-06-03T07:25:44.643Z,21.50
2018-06-03T07:28:17.400Z,21.57
2018-06-03T07:30:50.636Z,21.68
2018-06-03T07:35:58.390Z,22.02
2018-06-03T07:38:41.808Z,22.05
2018-06-03T07:41:20.817Z,22.17
2018-06-03T07:43:54.502Z,22.11
2018-06-03T07:46:26.934Z,22.24
2018-06-03T07:48:58.027Z,22.33
2018-06-03T07:51:30.242Z,22.63
2018-06-03T07:54:05.311Z,22.65
2018-06-03T07:56:37.009Z,22.94
2018-06-03T07:59:13.449Z,23.12
2018-06-03T08:01:47.075Z,23.26
2018-06-03T08:06:54.770Z,23.64
2018-06-03T08:09:26.772Z,23.75
2018-06-03T08:11:58.654Z,23.46
2018-06-03T08:14:31.107Z,23.74
2018-06-03T08:17:03.907Z,23.93
2018-06-03T08:19:36.429Z,24.10
2018-06-03T08:22:09.797Z,24.20
2018-06-03T08:24:42.389Z,24.45
2018-06-03T08:27:16.848Z,24.60
2018-06-03T08:29:50.177Z,24.68
2018-06-03T08:32:22.357Z,24.87
2018-06-03T08:34:55.022Z,24.99
2018-06-03T08:37:27.074Z,25.39
2018-06-03T08:39:58.287Z,25.56
2018-06-03T08:42:32.016Z,25.81
2018-06-03T08:45:05.591Z,25.90
2018-06-03T08:47:38.909Z,25.80
2018-06-03T08:52:45.273Z,25.98
2018-06-03T08:55:17.909Z,26.04
2018-06-03T08:57:50.913Z,26.36
2018-06-03T09:00:23.265Z,26.34
2018-06-03T09:02:55.045Z,26.80
2018-06-03T09:05:27.442Z,27.40
2018-06-03T09:07:58.498Z,27.48
2018-06-03T09:10:30.218Z,26.78
2018-06-03T09:13:03.257Z,26.45
2018-06-03T09:18:18.591Z,27.53
2018-06-03T09:20:52.549Z,28.31
2018-06-03T09:23:24.477Z,29.06
2018-06-03T09:25:59.519Z,28.36
2018-06-03T09:28:32.363Z,28.59
2018-06-03T09:31:08.156Z,30.16
2018-06-03T09:33:40.414Z,31.63
2018-06-03T09:36:13.466Z,32.65
2018-06-03T09:38:44.890Z,33.32
2018-06-03T09:41:18.208Z,33.17
2018-06-03T09:43:50.907Z,34.85
2018-06-03T09:46:25.593Z,36.41
2018-06-03T09:48:57.223Z,36.41
2018-06-03T09:54:06.199Z,37.02
2018-06-03T09:56:38.785Z,36.55
2018-06-03T09:59:11.825Z,37.86
2018-06-03T10:01:44.580Z,38.57
2018-06-03T10:04:17.107Z,39.24
2018-06-03T10:06:49.229Z,37.79
2018-06-03T10:11:57.220Z,36.10
2018-06-03T10:14:29.803Z,34.09
2018-06-03T10:17:01.436Z,35.18
2018-06-03T10:19:35.083Z,36.17
2018-06-03T10:22:08.179Z,36.90
2018-06-03T10:24:40.887Z,37.73
2018-06-03T10:27:13.088Z,39.85
2018-06-03T10:29:45.081Z,38.37
2018-06-03T10:32:17.144Z,36.14
2018-06-03T10:34:49.726Z,34.31
2018-06-03T10:37:21.694Z,33.06
2018-06-03T10:39:53.769Z,34.64
2018-06-03T10:42:26.212Z,36.34
2018-06-03T10:44:56.762Z,36.20
2018-06-03T10:47:29.644Z,34.55
2018-06-03T10:50:01.651Z,34.42
2018-06-03T10:55:13.243Z,36.31
2018-06-03T10:57:45.572Z,37.79
2018-06-03T11:00:19.802Z,38.51
2018-06-03T11:02:52.690Z,40.15
2018-06-03T11:05:25.169Z,40.96
2018-06-03T11:07:57.540Z,41.74
2018-06-03T11:10:31.037Z,42.32
2018-06-03T11:13:03.354Z,42.32
2018-06-03T11:15:35.934Z,43.38
2018-06-03T11:18:09.042Z,44.27
2018-06-03T11:20:41.083Z,44.12
2018-06-03T11:23:13.238Z,43.95
2018-06-03T11:25:45.508Z,40.97
2018-06-03T11:28:18.582Z,40.06
2018-06-03T11:30:51.292Z,41.00
2018-06-03T11:33:23.783Z,41.91
2018-06-03T11:35:54.686Z,41.85
2018-06-03T11:38:27.570Z,42.93
2018-06-03T11:41:00.372Z,43.57
2018-06-03T11:43:33.045Z,43.52
2018-06-03T11:46:04.875Z,40.43
2018-06-03T11:48:36.475Z,43.90
2018-06-03T11:51:08.281Z,45.30
2018-06-03T11:53:40.161Z,44.11
2018-06-03T11:56:12.633Z,44.20
2018-06-03T11:58:52.405Z,45.03
2018-06-03T12:01:25.112Z,44.97
2018-06-03T12:03:56.034Z,46.71
2018-06-03T12:09:05.834Z,46.15
2018-06-03T12:14:15.077Z,46.59
2018-06-03T12:16:46.845Z,44.32
2018-06-03T12:19:20.042Z,45.24
2018-06-03T12:21:52.873Z,45.34
2018-06-03T12:24:25.822Z,45.03
2018-06-03T12:26:56.285Z,43.57
2018-06-03T12:32:05.668Z,42.66
2018-06-03T12:34:38.738Z,42.19
2018-06-03T12:37:11.626Z,44.07
2018-06-03T12:39:44.053Z,42.24
2018-06-03T12:42:16.579Z,44.03
2018-06-03T12:44:50.528Z,45.91
2018-06-03T12:47:23.009Z,44.60
2018-06-03T12:49:54.334Z,42.04
2018-06-03T12:57:40.898Z,45.91
2018-06-03T13:00:13.657Z,42.26
2018-06-03T13:02:45.758Z,45.27
2018-06-03T13:05:17.961Z,45.50
2018-06-03T13:07:49.873Z,45.31
2018-06-03T13:10:22.530Z,46.09
2018-06-03T13:12:54.422Z,42.92
2018-06-03T13:15:26.903Z,42.80
2018-06-03T13:17:56.585Z,43.38
2018-06-03T13:20:29.547Z,42.58
2018-06-03T13:23:02.106Z,42.51
2018-06-03T13:25:33.930Z,42.90
2018-06-03T13:28:06.362Z,42.25
2018-06-03T13:30:40.021Z,44.15
2018-06-03T13:36:45.999Z,45.11
2018-06-03T13:39:19.020Z,45.43
2018-06-03T13:41:51.045Z,44.64
2018-06-03T13:44:23.875Z,43.59
2018-06-03T13:46:55.580Z,43.63
2018-06-03T13:54:39.810Z,44.25
2018-06-03T13:57:12.331Z,44.31
2018-06-03T13:59:44.186Z,44.47
2018-06-03T14:02:16.361Z,41.07
2018-06-03T14:04:50.014Z,41.18
2018-06-03T14:07:22.674Z,42.73
2018-06-03T14:09:54.933Z,43.15
2018-06-03T14:12:28.185Z,41.02
2018-06-03T14:14:59.899Z,39.98
2018-06-03T14:17:32.413Z,38.95
2018-06-03T14:20:04.545Z,38.93
2018-06-03T14:22:36.817Z,38.67
2018-06-03T14:25:09.476Z,38.30
2018-06-03T14:30:18.398Z,38.26
2018-06-03T14:32:51.028Z,38.72
2018-06-03T14:38:00.181Z,38.94
2018-06-03T14:40:33.049Z,37.70
2018-06-03T14:43:06.925Z,36.76
2018-06-03T14:45:39.135Z,36.99
2018-06-03T14:48:11.458Z,37.36
2018-06-03T14:50:43.924Z,39.74
2018-06-03T14:53:17.419Z,39.22
2018-06-03T14:55:50.212Z,38.83
2018-06-03T14:58:22.837Z,37.90
2018-06-03T15:00:55.665Z,38.10
2018-06-03T15:06:04.801Z,42.92
2018-06-03T15:11:12.611Z,43.85
2018-06-03T15:13:43.329Z,44.97
2018-06-03T15:16:15.586Z,45.71
2018-06-03T15:18:48.069Z,45.22
2018-06-03T15:21:20.603Z,45.29
2018-06-03T15:23:52.931Z,45.65
2018-06-03T15:31:40.532Z,41.83
2018-06-03T15:34:12.258Z,41.96
2018-06-03T15:36:44.181Z,40.98
2018-06-03T15:39:16.880Z,41.85
2018-06-03T15:41:49.366Z,42.38
2018-06-03T15:44:21.823Z,42.29
2018-06-03T15:46:54.398Z,41.98
2018-06-03T15:49:26.543Z,42.70
2018-06-03T15:51:57.635Z,43.38
2018-06-03T15:54:29.930Z,43.86
2018-06-03T15:57:02.240Z,44.87
2018-06-03T15:59:32.065Z,43.35
2018-06-03T16:02:04.822Z,42.07
2018-06-03T16:04:36.792Z,39.70
2018-06-03T16:07:09.743Z,37.46
2018-06-03T16:09:41.914Z,35.15
2018-06-03T16:14:50.552Z,37.40
2018-06-03T16:17:23.304Z,38.05
2018-06-03T16:19:55.707Z,36.35
2018-06-03T16:22:28.790Z,35.75
2018-06-03T16:25:00.232Z,34.19
2018-06-03T16:27:32.721Z,33.37
2018-06-03T16:30:05.576Z,33.28
2018-06-03T16:32:38.446Z,32.53
2018-06-03T16:35:11.201Z,31.64
2018-06-03T16:37:42.611Z,31.99
2018-06-03T16:40:15.988Z,31.42
2018-06-03T16:42:47.848Z,31.11
2018-06-03T16:45:20.473Z,31.21
2018-06-03T16:47:53.082Z,31.07
2018-06-03T16:53:02.431Z,30.74
2018-06-03T16:55:34.570Z,30.06
2018-06-03T16:58:06.292Z,30.20
2018-06-03T17:05:27.075Z,30.16
2018-06-03T17:07:57.884Z,29.85
2018-06-03T17:13:06.111Z,29.87
2018-06-03T17:15:37.930Z,29.52
2018-06-03T17:18:10.086Z,29.28
2018-06-03T17:20:42.225Z,29.39
2018-06-03T17:23:14.215Z,29.08
2018-06-03T17:25:47.076Z,28.73
2018-06-03T17:28:19.594Z,28.69
2018-06-03T17:30:52.770Z,28.30
2018-06-03T17:36:00.250Z,28.21
2018-06-03T17:41:08.500Z,27.79
2018-06-03T17:43:41.884Z,27.71
2018-06-03T17:46:13.982Z,27.40
2018-06-03T17:48:46.395Z,26.97
2018-06-03T17:51:19.023Z,26.92
2018-06-03T17:53:52.057Z,26.55
2018-06-03T17:56:25.377Z,26.32
2018-06-03T17:58:57.117Z,26.40
2018-06-03T18:01:29.985Z,26.11
2018-06-03T18:04:02.182Z,25.89
2018-06-03T18:06:35.178Z,25.64
2018-06-03T18:09:08.117Z,25.65
2018-06-03T18:11:40.585Z,25.33
2018-06-03T18:14:12.766Z,25.21
2018-06-03T18:16:45.748Z,25.10
2018-06-03T18:19:19.114Z,24.98
2018-06-03T18:24:27.311Z,24.77
2018-06-03T18:26:58.161Z,24.50
2018-06-03T18:29:30.858Z,24.28
2018-06-03T18:32:03.064Z,24.09
2018-06-03T18:34:36.174Z,23.94
2018-06-03T18:37:08.486Z,23.73
2018-06-03T18:39:41.959Z,23.62
2018-06-03T18:42:15.575Z,23.48
2018-06-03T18:44:48.271Z,23.30
2018-06-03T18:47:20.597Z,23.14
2018-06-03T18:49:53.988Z,22.99
2018-06-03T18:52:26.831Z,22.83
2018-06-03T18:54:57.542Z,22.71
2018-06-03T19:00:07.200Z,22.62
2018-06-03T19:05:16.309Z,22.41
2018-06-03T19:07:50.028Z,22.17
2018-06-03T19:10:22.145Z,21.97
2018-06-03T19:12:55.044Z,21.87
2018-06-03T19:15:28.412Z,21.83
2018-06-03T19:18:00.458Z,21.64
2018-06-03T19:20:33.315Z,21.52
2018-06-03T19:23:05.749Z,21.61
2018-06-03T19:25:37.881Z,21.40
2018-06-03T19:28:10.431Z,21.17
2018-06-03T19:33:19.707Z,21.03
2018-06-03T19:35:52.601Z,20.72
2018-06-03T19:38:25.835Z,20.51
2018-06-03T19:40:57.097Z,20.41
2018-06-03T19:43:29.154Z,20.38
2018-06-03T19:46:01.616Z,20.20
2018-06-03T19:51:10.234Z,20.08
2018-06-03T19:53:43.854Z,19.93
2018-06-03T19:56:16.305Z,19.92
2018-06-03T20:01:24.102Z,19.58
2018-06-03T20:03:55.971Z,19.35
2018-06-03T20:06:28.185Z,19.33
2018-06-03T20:08:58.089Z,19.26
2018-06-03T20:11:30.177Z,19.20
2018-06-03T20:13:59.957Z,19.11
2018-06-03T20:19:07.215Z,19.14
2018-06-03T20:21:39.152Z,19.00
2018-06-03T20:24:10.593Z,18.85
2018-06-03T20:26:42.310Z,18.74
2018-06-03T20:29:12.469Z,18.63
2018-06-03T20:34:23.316Z,18.58
2018-06-03T20:36:53.469Z,18.62
2018-06-03T20:39:25.078Z,18.65
2018-06-03T20:41:56.619Z,18.34
2018-06-03T20:44:29.164Z,18.18
2018-06-03T20:46:59.914Z,18.13
2018-06-03T20:52:10.914Z,18.25
2018-06-03T20:54:42.577Z,18.20
2018-06-03T20:57:16.049Z,17.93
2018-06-03T20:59:48.685Z,17.96
2018-06-03T21:07:33.725Z,17.87
2018-06-03T21:10:04.930Z,17.63
2018-06-03T21:15:12.775Z,17.52
2018-06-03T21:17:43.814Z,17.40
2018-06-03T21:20:14.401Z,17.28
2018-06-03T21:22:46.183Z,17.19
2018-06-03T21:25:17.417Z,17.13
2018-06-03T21:27:50.532Z,17.09
2018-06-03T21:38:11.153Z,17.38
2018-06-03T21:40:44.143Z,17.08
2018-06-03T21:43:16.634Z,16.86
2018-06-03T21:45:48.502Z,16.80
2018-06-03T21:48:19.887Z,16.76
2018-06-03T21:50:52.481Z,16.65
2018-06-03T21:56:14.072Z,16.64
2018-06-03T21:58:52.357Z,16.45
2018-06-03T22:07:01.179Z,16.39
2018-06-03T22:09:33.538Z,16.24
2018-06-03T22:12:04.575Z,16.14
2018-06-03T22:14:37.176Z,16.29
2018-06-03T22:17:09.262Z,16.12
2018-06-03T22:19:42.175Z,16.04
2018-06-03T22:22:13.696Z,16.00
2018-06-03T22:24:46.561Z,16.01
2018-06-03T22:27:19.000Z,16.11
2018-06-03T22:29:52.077Z,16.18
2018-06-03T22:32:24.967Z,16.27
2018-06-03T22:37:34.189Z,16.15
2018-06-03T22:40:04.628Z,16.26
2018-06-03T22:42:37.912Z,16.27
2018-06-03T22:45:10.821Z,15.98
2018-06-03T22:47:43.903Z,15.78
2018-06-03T22:50:16.091Z,15.66
2018-06-03T22:52:48.450Z,15.79
2018-06-03T22:55:21.005Z,15.70
2018-06-03T22:57:53.442Z,15.64
2018-06-03T23:00:26.361Z,15.72
2018-06-03T23:02:58.565Z,15.69
2018-06-03T23:05:31.033Z,15.66
2018-06-03T23:08:03.867Z,15.60
2018-06-03T23:10:37.275Z,15.58
2018-06-03T23:13:10.008Z,15.67
2018-06-03T23:15:43.011Z,15.55
2018-06-03T23:18:16.055Z,15.47
2018-06-03T23:20:49.136Z,15.39
2018-06-03T23:23:22.333Z,15.23
2018-06-03T23:28:30.422Z,15.24
2018-06-03T23:31:03.490Z,15.19
2018-06-03T23:33:35.487Z,15.10
2018-06-03T23:36:07.344Z,15.11
2018-06-03T23:41:16.606Z,15.29
2018-06-03T23:43:49.341Z,15.20
2018-06-03T23:46:22.378Z,15.02
2018-06-03T23:48:56.990Z,14.82
2018-06-03T23:54:06.616Z,14.91
2018-06-03T23:56:39.532Z,14.83
2018-06-03T23:59:12.048Z,14.71
